Time;durP1;ratioP1;P1;durP2;ratioP2;P2;SDS_P1;SDS_P2;PMS_P1;PMS_P2;Temp;Humidity;BMP_temperature;BMP_pressure;BME280_temperature;BME280_humidity;BME280_pressure;Samples;Min_cycle;Max_cycle;Signal;HPM_P1;HPM_P2
2021/07/29 00:00:25;;;;;;;16.67;13.40;;;;;;;19.55;80.39;98513.77;2212182;81;20932;-80
2021/07/29 00:03:29;;;;;;;14.15;12.75;;;;;;;19.51;80.68;98515.61;2190192;81;21016;-80
2021/07/29 00:06:29;;;;;;;13.83;12.35;;;;;;;19.45;81.38;98518.43;2211789;81;21015;-81
2021/07/29 00:09:30;;;;;;;14.80;12.40;;;;;;;19.42;80.90;98519.84;2212035;81;21275;-80
2021/07/29 00:12:30;;;;;;;13.45;12.13;;;;;;;19.41;80.94;98515.47;2211999;81;21428;-80
2021/07/29 00:15:31;;;;;;;14.43;12.93;;;;;;;19.39;80.85;98520.80;2211871;81;21138;-80
2021/07/29 00:21:50;;;;;;;13.62;12.23;;;;;;;19.34;80.86;98517.88;2212079;81;20929;-80
2021/07/29 00:24:51;;;;;;;14.40;13.13;;;;;;;19.32;80.93;98519.70;2211682;80;20996;-79
2021/07/29 00:27:51;;;;;;;15.20;13.70;;;;;;;19.27;81.16;98515.86;2212542;81;20924;-79
2021/07/29 00:30:51;;;;;;;16.37;14.78;;;;;;;19.26;81.21;98519.88;2212065;81;21317;-81
2021/07/29 00:33:52;;;;;;;15.45;13.85;;;;;;;19.25;81.71;98511.52;2212111;81;20912;-80
2021/07/29 00:36:53;;;;;;;14.28;12.30;;;;;;;19.20;81.45;98518.27;2211655;81;21019;-80
2021/07/29 00:39:53;;;;;;;14.93;13.20;;;;;;;19.16;81.37;98524.55;2211954;81;20925;-81
2021/07/29 00:42:54;;;;;;;14.20;12.58;;;;;;;19.14;81.11;98529.02;2211979;81;21312;-80
2021/07/29 00:45:56;;;;;;;14.25;12.78;;;;;;;19.14;81.23;98537.41;2212070;81;20948;-81
2021/07/29 00:48:57;;;;;;;15.30;13.50;;;;;;;19.14;81.27;98536.09;2211963;81;20969;-81
2021/07/29 00:51:58;;;;;;;14.90;13.38;;;;;;;19.15;81.45;98532.53;2211888;81;20969;-81
2021/07/29 00:54:58;;;;;;;14.60;13.20;;;;;;;19.17;81.29;98536.00;2211959;81;20912;-81
2021/07/29 00:57:59;;;;;;;17.12;13.93;;;;;;;19.17;81.00;98535.55;2212073;81;21329;-81
2021/07/29 01:00:59;;;;;;;14.18;12.68;;;;;;;19.19;81.03;98544.77;2212028;81;20975;-81
2021/07/29 01:04:00;;;;;;;15.90;12.23;;;;;;;19.20;81.04;98541.21;2211812;81;20933;-82
2021/07/29 01:07:00;;;;;;;14.20;12.90;;;;;;;19.19;81.26;98543.44;2211770;81;21006;-81
2021/07/29 01:10:02;;;;;;;16.42;14.47;;;;;;;19.19;81.18;98547.41;2212008;81;20889;-81
2021/07/29 01:13:02;;;;;;;15.10;13.65;;;;;;;19.18;81.16;98547.00;2211930;81;20976;-81
2021/07/29 01:16:03;;;;;;;21.40;14.43;;;;;;;19.14;81.40;98554.61;2212044;81;20917;-81
2021/07/29 01:19:03;;;;;;;15.35;13.70;;;;;;;19.12;82.03;98559.94;2211859;81;20995;-80
2021/07/29 01:22:04;;;;;;;15.00;13.40;;;;;;;19.08;81.61;98556.51;2211774;81;20925;-80
2021/07/29 01:25:04;;;;;;;16.65;12.55;;;;;;;19.04;81.21;98556.14;2220985;80;20964;-80
2021/07/29 01:28:05;;;;;;;14.23;12.63;;;;;;;19.04;81.00;98552.63;2222219;80;20884;-82
2021/07/29 01:31:06;;;;;;;13.85;10.85;;;;;;;19.06;81.11;98552.14;2222014;80;20988;-81
2021/07/29 01:34:06;;;;;;;15.10;11.78;;;;;;;19.05;81.32;98553.91;2222283;80;20881;-82
2021/07/29 01:37:07;;;;;;;12.45;11.45;;;;;;;19.04;81.33;98557.92;2222359;80;20988;-81
2021/07/29 01:40:07;;;;;;;12.07;10.55;;;;;;;19.02;80.85;98564.58;2222327;80;20948;-81
2021/07/29 01:43:08;;;;;;;13.88;9.85;;;;;;;18.99;80.59;98561.14;2222367;80;20939;-81
2021/07/29 01:46:08;;;;;;;12.20;11.05;;;;;;;18.97;80.92;98573.54;2222369;80;21331;-80
2021/07/29 01:49:09;;;;;;;13.90;11.48;;;;;;;18.94;80.53;98566.55;2222486;80;20924;-81
2021/07/29 01:52:10;;;;;;;13.22;11.85;;;;;;;18.97;80.83;98570.44;2222429;80;20901;-81
2021/07/29 01:55:10;;;;;;;14.20;11.45;;;;;;;18.99;80.42;98571.72;2222323;80;21347;-80
2021/07/29 01:58:11;;;;;;;14.00;11.65;;;;;;;18.95;80.61;98569.61;2222329;80;20936;-78
2021/07/29 02:01:11;;;;;;;13.75;11.03;;;;;;;18.86;80.71;98568.53;2221862;80;21187;-77
2021/07/29 02:04:12;;;;;;;12.28;9.90;;;;;;;18.86;80.71;98568.53;2222002;80;21297;-78
2021/07/29 02:07:12;;;;;;;9.93;8.45;;;;;;;18.83;80.70;98564.64;2221460;80;20980;-78
2021/07/29 02:10:13;;;;;;;11.97;8.98;;;;;;;18.78;79.86;98563.89;2221938;80;20909;-78
2021/07/29 02:13:13;;;;;;;10.40;8.13;;;;;;;18.69;79.74;98566.77;2221886;80;20924;-78
2021/07/29 02:16:14;;;;;;;9.68;8.13;;;;;;;18.65;79.81;98563.78;2221822;80;20919;-78
2021/07/29 02:19:14;;;;;;;13.43;9.03;;;;;;;18.63;79.81;98562.95;2221982;80;21431;-80
2021/07/29 02:22:15;;;;;;;10.10;8.10;;;;;;;18.77;79.59;98572.73;2222274;80;20889;-79
2021/07/29 02:25:15;;;;;;;9.28;7.87;;;;;;;18.95;79.48;98573.58;2212954;80;20996;-80
2021/07/29 02:28:16;;;;;;;9.33;7.72;;;;;;;18.84;79.30;98575.64;2211541;80;20969;-78
2021/07/29 02:31:17;;;;;;;8.33;7.47;;;;;;;19.02;80.87;98579.12;2211790;80;21313;-77
2021/07/29 02:34:17;;;;;;;9.35;8.45;;;;;;;19.22;79.42;98574.66;2211670;81;20948;-78
2021/07/29 02:37:18;;;;;;;9.45;8.08;;;;;;;19.28;78.93;98573.63;2211804;80;20988;-80
2021/07/29 02:40:18;;;;;;;9.08;8.15;;;;;;;19.40;78.58;98582.55;2212209;81;20912;-80
2021/07/29 02:43:19;;;;;;;8.98;8.18;;;;;;;19.23;77.50;98574.20;2211521;80;21277;-78
2021/07/29 02:46:19;;;;;;;11.10;8.65;;;;;;;19.29;77.76;98578.87;2212132;80;20894;-78
2021/07/29 02:49:20;;;;;;;9.30;8.40;;;;;;;19.37;77.93;98579.98;2211647;80;20965;-78
2021/07/29 02:52:20;;;;;;;9.43;8.43;;;;;;;19.36;77.67;98573.82;2211781;80;20974;-79
2021/07/29 02:55:21;;;;;;;9.38;8.58;;;;;;;19.24;77.67;98570.64;2211675;80;20956;-78
2021/07/29 02:58:22;;;;;;;11.50;9.55;;;;;;;19.22;79.13;98579.08;2211816;80;21309;-79
2021/07/29 03:01:22;;;;;;;11.33;10.18;;;;;;;19.76;78.96;98587.73;2211805;80;20937;-78
2021/07/29 03:04:24;;;;;;;11.70;10.65;;;;;;;20.01;77.96;98583.48;2211789;81;20909;-78
2021/07/29 03:07:26;;;;;;;16.30;14.63;;;;;;;20.58;76.61;98578.61;2211473;81;20975;-79
2021/07/29 03:10:26;;;;;;;15.23;13.62;;;;;;;20.94;74.88;98575.23;2211668;81;20917;-78
2021/07/29 03:13:27;;;;;;;19.32;15.23;;;;;;;21.35;74.11;98570.29;2211711;81;20925;-78
2021/07/29 03:16:27;;;;;;;14.20;12.90;;;;;;;21.58;72.55;98571.19;2211533;81;20960;-78
2021/07/29 03:19:29;;;;;;;13.30;11.85;;;;;;;21.70;71.71;98565.91;2211555;81;20980;-79
2021/07/29 03:22:29;;;;;;;19.05;17.30;;;;;;;21.52;71.05;98566.09;2211615;81;20976;-80
2021/07/29 03:25:29;;;;;;;18.00;11.33;;;;;;;21.18;69.68;98579.69;2219996;80;21391;-79
2021/07/29 03:28:30;;;;;;;11.78;9.63;;;;;;;20.81;71.29;98581.41;2222237;80;21660;-80
2021/07/29 03:31:30;;;;;;;10.58;9.53;;;;;;;20.39;72.05;98580.99;2222289;80;20931;-80
2021/07/29 03:34:31;;;;;;;11.90;10.75;;;;;;;20.26;73.23;98585.78;2222328;80;20988;-80
2021/07/29 03:37:31;;;;;;;16.45;14.55;;;;;;;20.10;73.00;98577.90;2221871;80;20948;-79
2021/07/29 03:40:32;;;;;;;16.80;15.05;;;;;;;20.38;73.71;98573.05;2221987;80;20948;-79
2021/07/29 03:43:35;;;;;;;22.58;20.25;;;;;;;21.10;72.86;98568.93;2221910;80;20943;-78
2021/07/29 03:46:36;;;;;;;20.70;18.77;;;;;;;21.10;72.86;98568.93;2221945;80;21347;-78
2021/07/29 03:49:36;;;;;;;15.72;14.20;;;;;;;20.97;70.97;98565.84;2221902;80;20955;-80
2021/07/29 03:52:37;;;;;;;17.57;15.72;;;;;;;20.39;71.79;98569.49;2221526;80;20979;-79
2021/07/29 03:55:38;;;;;;;13.45;12.10;;;;;;;20.39;73.35;98574.80;2221901;80;20975;-78
2021/07/29 03:58:38;;;;;;;16.82;15.08;;;;;;;20.41;72.37;98578.30;2221861;80;20927;-79
2021/07/29 04:01:39;;;;;;;11.55;9.93;;;;;;;20.45;73.72;98579.93;2221480;80;21351;-78
2021/07/29 04:04:40;;;;;;;12.03;10.08;;;;;;;20.51;72.66;98587.23;2221535;80;20943;-79
2021/07/29 04:07:40;;;;;;;14.13;11.18;;;;;;;20.35;72.29;98589.47;2221391;80;20999;-78
2021/07/29 04:10:41;;;;;;;12.68;11.15;;;;;;;19.80;72.51;98597.33;2221762;80;20928;-78
2021/07/29 04:13:41;;;;;;;13.30;11.97;;;;;;;19.63;73.79;98598.68;2221757;80;20964;-78
2021/07/29 04:16:42;;;;;;;13.80;11.12;;;;;;;19.36;74.73;98598.96;2221827;80;20924;-79
2021/07/29 04:19:42;;;;;;;16.02;11.03;;;;;;;19.40;74.77;98603.72;2221763;80;20944;-80
2021/07/29 04:22:44;;;;;;;15.45;11.97;;;;;;;19.09;75.42;98604.99;2221591;80;21391;-79
2021/07/29 04:25:45;;;;;;;43.30;12.03;;;;;;;18.98;75.85;98611.85;2221478;80;20991;-80
2021/07/29 04:28:46;;;;;;;15.65;12.65;;;;;;;18.85;77.04;98609.11;2221979;80;20952;-80
2021/07/29 04:31:46;;;;;;;16.77;13.25;;;;;;;18.69;77.45;98602.46;2221516;80;20934;-78
2021/07/29 04:34:46;;;;;;;14.85;12.70;;;;;;;18.63;78.35;98607.89;2221861;80;20932;-77
2021/07/29 04:37:51;;;;;;;15.55;13.38;;;;;;;18.67;78.62;98609.56;2221289;80;21375;-79
2021/07/29 04:40:52;;;;;;;17.82;13.45;;;;;;;19.15;79.34;98610.58;2221488;80;20999;-79
2021/07/29 04:43:53;;;;;;;15.80;13.08;;;;;;;19.26;78.15;98605.41;2221418;80;21316;-79
2021/07/29 04:46:54;;;;;;;14.98;13.48;;;;;;;19.75;77.56;98607.19;2221760;80;20980;-79
2021/07/29 04:49:54;;;;;;;22.40;14.30;;;;;;;19.75;77.56;98607.19;2221604;80;21303;-78
2021/07/29 04:52:55;;;;;;;16.80;13.30;;;;;;;20.20;77.80;98605.84;2221211;80;21277;-77
2021/07/29 04:55:55;;;;;;;17.23;15.35;;;;;;;20.35;75.94;98597.42;2221291;80;21561;-77
2021/07/29 04:58:56;;;;;;;15.53;12.43;;;;;;;;;;2221532;80;20940;-78
2021/07/29 05:01:56;;;;;;;14.43;11.30;;;;;;;20.81;73.91;98589.37;2221442;80;20971;-80
2021/07/29 05:04:57;;;;;;;12.93;11.68;;;;;;;20.74;73.89;98593.56;2221557;80;20932;-79
2021/07/29 05:07:57;;;;;;;17.67;11.38;;;;;;;20.70;74.11;98588.83;2220882;80;20998;-79
2021/07/29 05:10:58;;;;;;;12.10;9.83;;;;;;;20.87;73.11;98591.81;2221159;80;20928;-78
2021/07/29 05:13:58;;;;;;;10.38;9.00;;;;;;;20.73;73.10;98587.39;2221961;80;20904;-77
2021/07/29 05:16:59;;;;;;;15.03;9.05;;;;;;;20.73;72.55;98590.05;2221730;80;21366;-79
2021/07/29 05:20:00;;;;;;;12.18;8.25;;;;;;;20.74;70.82;98599.73;2221722;80;21195;-79
2021/07/29 05:23:01;;;;;;;9.98;8.23;;;;;;;20.77;71.40;98600.96;2221804;80;20932;-79
2021/07/29 05:26:01;;;;;;;9.15;8.00;;;;;;;20.86;70.43;98604.67;2221758;80;20987;-78
2021/07/29 05:29:02;;;;;;;14.10;8.18;;;;;;;20.95;69.22;98603.49;2221868;80;20892;-78
2021/07/29 05:32:02;;;;;;;8.88;7.83;;;;;;;20.87;69.51;98598.91;2221335;80;21363;-77
2021/07/29 05:35:03;;;;;;;9.00;8.10;;;;;;;20.77;68.29;98602.29;2221366;80;20959;-78
2021/07/29 05:38:03;;;;;;;8.48;7.42;;;;;;;20.83;69.57;98602.12;2221401;80;21047;-79
2021/07/29 05:41:04;;;;;;;11.55;7.60;;;;;;;20.95;69.30;98604.36;2222086;80;20936;-79
2021/07/29 05:44:04;;;;;;;9.35;8.20;;;;;;;20.85;67.82;98603.39;2222095;80;20956;-79
2021/07/29 05:47:05;;;;;;;10.25;7.45;;;;;;;20.71;68.40;98602.48;2222552;80;21324;-78
2021/07/29 05:50:05;;;;;;;9.13;8.23;;;;;;;20.62;68.06;98601.01;2222128;80;21300;-79
2021/07/29 05:53:06;;;;;;;12.25;7.62;;;;;;;20.67;69.23;98598.20;2222140;80;20947;-78
2021/07/29 05:56:06;;;;;;;8.23;7.42;;;;;;;20.72;68.08;98606.87;2222193;80;20932;-79
2021/07/29 05:59:07;;;;;;;9.05;7.40;;;;;;;20.76;67.91;98609.84;2221448;80;20967;-79
2021/07/29 06:02:07;;;;;;;8.28;7.47;;;;;;;20.79;66.83;98611.06;2221907;80;20931;-79
2021/07/29 06:05:08;;;;;;;7.45;6.75;;;;;;;20.83;67.23;98620.69;2222300;80;20932;-79
2021/07/29 06:08:09;;;;;;;8.50;7.42;;;;;;;20.86;66.75;98613.95;2221526;80;21043;-78
2021/07/29 06:11:09;;;;;;;8.83;7.25;;;;;;;20.93;65.50;98624.77;2221364;80;20948;-79
2021/07/29 06:14:10;;;;;;;8.40;7.60;;;;;;;21.01;66.42;98630.28;2221798;80;20928;-78
2021/07/29 06:17:11;;;;;;;8.15;7.35;;;;;;;21.10;66.04;98616.70;2222355;80;20928;-79
2021/07/29 06:20:11;;;;;;;8.38;7.33;;;;;;;21.11;66.25;98617.11;2222304;80;21028;-78
2021/07/29 06:23:12;;;;;;;8.15;6.95;;;;;;;21.32;66.15;98622.16;2221701;80;20959;-77
2021/07/29 06:26:12;;;;;;;7.80;7.00;;;;;;;21.42;65.85;98624.91;2212775;80;20956;-79
2021/07/29 06:29:13;;;;;;;7.58;6.78;;;;;;;21.66;64.48;98628.47;2211483;80;21009;-79
2021/07/29 06:32:13;;;;;;;9.48;7.65;;;;;;;21.77;63.91;98627.65;2211675;81;20948;-78
2021/07/29 06:35:14;;;;;;;7.47;6.67;;;;;;;21.89;63.02;98637.83;2211783;80;20913;-79
2021/07/29 06:38:14;;;;;;;9.45;7.47;;;;;;;21.93;62.50;98628.81;2211938;80;20968;-79
2021/07/29 06:41:15;;;;;;;10.50;6.33;;;;;;;22.03;63.12;98634.22;2211892;80;20924;-78
2021/07/29 06:44:15;;;;;;;8.15;6.83;;;;;;;22.31;62.36;98625.19;2211506;81;20952;-78
2021/07/29 06:47:18;;;;;;;9.93;6.15;;;;;;;22.46;61.54;98632.56;2211723;80;20963;-79
2021/07/29 06:50:18;;;;;;;7.05;6.03;;;;;;;22.63;61.68;98627.47;2211443;81;20917;-80
2021/07/29 06:53:19;;;;;;;7.80;6.78;;;;;;;22.86;60.07;98627.43;2211298;80;21301;-79
2021/07/29 06:56:19;;;;;;;7.47;6.78;;;;;;;23.06;59.61;98641.70;2211231;80;20929;-78
2021/07/29 06:59:20;;;;;;;7.53;6.50;;;;;;;23.07;59.24;98630.13;2211643;80;20968;-79
2021/07/29 07:02:20;;;;;;;7.45;6.55;;;;;;;23.25;58.67;98637.34;2211155;80;20926;-81
2021/07/29 07:05:21;;;;;;;8.53;6.67;;;;;;;23.16;57.70;98637.27;2211677;80;20972;-79
2021/07/29 07:08:24;;;;;;;7.03;6.25;;;;;;;23.21;57.40;98642.39;2211503;81;21019;-79
2021/07/29 07:11:24;;;;;;;7.00;6.33;;;;;;;23.46;58.92;98644.91;2211441;81;20972;-78
2021/07/29 07:14:28;;;;;;;11.25;7.00;;;;;;;23.82;57.06;98643.78;2211822;80;21288;-79
2021/07/29 07:17:28;;;;;;;8.93;6.72;;;;;;;23.84;56.90;98647.23;2211164;80;21414;-80
2021/07/29 07:20:29;;;;;;;7.50;6.40;;;;;;;24.18;55.71;98652.36;2211131;80;20990;-77
2021/07/29 07:23:29;;;;;;;7.12;6.42;;;;;;;23.83;56.01;98645.51;2210939;81;20972;-78
2021/07/29 07:26:30;;;;;;;11.33;6.78;;;;;;;23.75;56.72;98640.98;2211637;80;20975;-78
2021/07/29 07:29:31;;;;;;;6.70;6.10;;;;;;;23.92;57.45;98645.09;2211752;81;20964;-79
2021/07/29 07:35:34;;;;;;;7.58;6.35;;;;;;;24.19;56.41;98634.09;2189004;81;21624;-78
2021/07/29 07:38:34;;;;;;;7.85;6.30;;;;;;;24.67;55.00;98625.16;2211095;80;20984;-77
2021/07/29 07:41:35;;;;;;;10.95;6.20;;;;;;;25.14;54.09;98627.77;2210750;80;20992;-78
2021/07/29 07:44:35;;;;;;;8.05;6.10;;;;;;;25.52;52.36;98621.83;2210426;81;21269;-78
2021/07/29 07:47:36;;;;;;;16.60;6.60;;;;;;;25.28;51.48;98622.16;2210672;80;20972;-78
2021/07/29 07:50:40;;;;;;;6.08;5.47;;;;;;;25.26;52.17;98624.51;2210914;80;20976;-78
2021/07/29 07:53:41;;;;;;;8.85;6.10;;;;;;;25.79;51.58;98624.41;2211312;80;20948;-80
2021/07/29 07:56:43;;;;;;;6.20;5.60;;;;;;;26.09;49.51;98623.73;2211609;81;20917;-79
2021/07/29 07:59:43;;;;;;;11.10;5.70;;;;;;;26.00;50.25;98625.93;2211147;81;20921;-78
2021/07/29 08:02:44;;;;;;;7.58;6.17;;;;;;;26.30;49.97;98623.89;2211515;80;20937;-79
2021/07/29 08:05:50;;;;;;;6.42;5.83;;;;;;;26.26;48.97;98620.52;2210986;80;20964;-77
2021/07/29 08:08:51;;;;;;;6.25;5.42;;;;;;;26.47;48.67;98625.19;2210612;80;20964;-80
2021/07/29 08:11:51;;;;;;;10.43;5.95;;;;;;;26.71;47.68;98624.74;2210916;80;20940;-77
2021/07/29 08:14:52;;;;;;;5.15;4.65;;;;;;;26.84;47.66;98627.97;2211015;80;20941;-78
2021/07/29 08:17:52;;;;;;;5.22;4.72;;;;;;;26.83;46.60;98614.66;2211191;80;20921;-77
2021/07/29 08:20:53;;;;;;;8.00;5.33;;;;;;;26.49;47.34;98611.23;2211238;80;21371;-78
2021/07/29 08:23:53;;;;;;;5.58;5.03;;;;;;;26.30;46.79;98615.86;2210746;80;20932;-78
2021/07/29 08:26:54;;;;;;;6.12;5.40;;;;;;;26.41;46.45;98604.12;2220274;80;20988;-76
2021/07/29 08:29:54;;;;;;;6.00;5.37;;;;;;;26.19;46.60;98603.55;2221072;80;20924;-79
2021/07/29 08:32:55;;;;;;;6.97;4.95;;;;;;;25.95;46.84;98601.24;2221371;80;21056;-78
2021/07/29 08:35:56;;;;;;;6.30;5.20;;;;;;;25.70;46.55;98611.53;2221111;80;20948;-79
2021/07/29 08:39:02;;;;;;;9.08;5.35;;;;;;;25.45;47.48;98601.71;2221186;80;21332;-79
2021/07/29 08:42:03;;;;;;;5.60;5.10;;;;;;;25.51;48.35;98606.73;2220875;80;20944;-79
2021/07/29 08:45:03;;;;;;;6.17;5.25;;;;;;;25.94;48.99;98599.52;2221496;80;20963;-78
2021/07/29 08:48:04;;;;;;;5.08;4.58;;;;;;;26.32;48.28;98603.27;2221831;80;21352;-78
2021/07/29 08:51:04;;;;;;;8.55;4.50;;;;;;;26.48;44.97;98603.30;2221822;80;20968;-79
2021/07/29 08:54:08;;;;;;;6.83;5.03;;;;;;;26.08;44.69;98600.61;2221767;80;20924;-78
2021/07/29 08:57:07;;;;;;;5.43;4.93;;;;;;;26.12;46.01;98590.99;2221956;80;21597;-79
2021/07/29 09:00:08;;;;;;;5.33;4.83;;;;;;;26.34;46.85;98594.70;2220808;80;20956;-80
2021/07/29 09:03:09;;;;;;;7.22;5.08;;;;;;;26.70;44.71;98594.91;2221603;80;20920;-80
2021/07/29 09:06:09;;;;;;;4.95;4.55;;;;;;;26.79;46.00;98602.41;2221371;80;20932;-78
2021/07/29 09:09:10;;;;;;;5.45;5.03;;;;;;;26.99;44.96;98595.48;2220863;80;21359;-78
2021/07/29 09:12:10;;;;;;;7.25;5.25;;;;;;;26.94;44.01;98603.75;2221749;80;21296;-81
2021/07/29 09:15:11;;;;;;;5.12;4.72;;;;;;;26.88;44.93;98595.20;2221657;80;20916;-79
2021/07/29 09:18:12;;;;;;;6.12;5.45;;;;;;;27.25;44.96;98600.63;2221926;80;20925;-77
2021/07/29 09:21:12;;;;;;;5.42;4.78;;;;;;;27.37;44.09;98597.69;2221648;80;20971;-80
2021/07/29 09:24:13;;;;;;;5.78;4.85;;;;;;;27.25;44.41;98603.31;2221175;80;20925;-78
2021/07/29 09:27:13;;;;;;;4.78;4.30;;;;;;;26.94;44.49;98593.03;2211462;80;21316;-79
2021/07/29 09:30:14;;;;;;;5.17;4.65;;;;;;;27.00;45.09;98605.72;2210708;80;20976;-79
2021/07/29 09:33:16;;;;;;;5.37;4.75;;;;;;;27.12;44.35;98600.50;2210649;80;20963;-78
2021/07/29 09:36:17;;;;;;;6.57;4.53;;;;;;;26.97;44.75;98602.70;2210903;81;20988;-78
2021/07/29 09:39:18;;;;;;;5.75;5.15;;;;;;;26.67;44.30;98595.94;2210597;81;21305;-78
2021/07/29 09:42:19;;;;;;;5.20;4.70;;;;;;;26.95;44.34;98595.23;2210565;80;20948;-79
2021/07/29 09:45:20;;;;;;;7.80;4.90;;;;;;;27.02;44.92;98595.30;2210869;80;21277;-79
2021/07/29 09:48:22;;;;;;;5.55;4.55;;;;;;;26.71;43.31;98597.97;2211076;80;21336;-79
2021/07/29 09:51:23;;;;;;;5.60;4.70;;;;;;;26.40;44.55;98603.73;2210990;81;21020;-79
2021/07/29 09:54:23;;;;;;;6.62;4.90;;;;;;;26.86;44.94;98605.11;2210809;80;21360;-79
2021/07/29 09:57:24;;;;;;;5.17;4.40;;;;;;;27.12;43.50;98611.22;2210999;80;20979;-82
2021/07/29 10:00:24;;;;;;;5.00;4.50;;;;;;;27.32;42.51;98599.78;2211177;80;20948;-78
2021/07/29 10:03:25;;;;;;;5.37;4.40;;;;;;;27.51;42.83;98596.38;2211107;80;20963;-80
2021/07/29 10:06:25;;;;;;;6.10;4.67;;;;;;;27.47;42.43;98594.84;2210864;80;21328;-79
2021/07/29 10:09:27;;;;;;;4.85;4.37;;;;;;;27.64;42.17;98605.42;2210684;80;21011;-79
2021/07/29 10:12:29;;;;;;;4.40;4.10;;;;;;;27.49;42.43;98590.25;2211391;81;21361;-79
2021/07/29 10:15:29;;;;;;;4.60;4.20;;;;;;;27.77;42.98;98588.13;2211346;81;21361;-79
2021/07/29 10:18:30;;;;;;;5.15;4.35;;;;;;;28.07;42.35;98591.58;2211598;80;20928;-80
2021/07/29 10:21:30;;;;;;;5.35;4.90;;;;;;;28.26;40.76;98585.93;2210747;81;21436;-77
2021/07/29 10:24:31;;;;;;;5.28;4.83;;;;;;;28.57;40.35;98582.59;2210253;80;20937;-81
2021/07/29 10:27:31;;;;;;;5.25;4.70;;;;;;;28.22;39.87;98587.91;2211183;80;21018;-82
2021/07/29 10:30:36;;;;;;;4.17;3.70;;;;;;;28.12;40.79;98580.07;2211543;80;21179;-80
2021/07/29 10:33:34;;;;;;;6.20;4.40;;;;;;;28.45;39.58;98580.23;2211186;80;20972;-80
2021/07/29 10:36:35;;;;;;;3.95;3.65;;;;;;;28.61;38.66;98584.12;2211402;80;21293;-82
2021/07/29 10:39:35;;;;;;;4.80;4.45;;;;;;;28.74;39.87;98586.41;2211136;81;21341;-82
2021/07/29 10:42:36;;;;;;;5.35;3.95;;;;;;;28.88;39.03;98582.84;2211307;80;20901;-81
2021/07/29 10:45:36;;;;;;;5.30;4.90;;;;;;;29.20;38.77;98579.31;2211439;80;20901;-81
2021/07/29 10:48:37;;;;;;;4.92;4.03;;;;;;;29.37;38.24;98579.02;2210877;80;20964;-81
2021/07/29 10:51:37;;;;;;;4.90;4.50;;;;;;;29.11;38.83;98575.43;2211387;80;21075;-80
2021/07/29 10:54:38;;;;;;;5.67;4.22;;;;;;;28.77;39.33;98577.66;2211938;80;20976;-81
2021/07/29 11:00:41;;;;;;;16.87;5.30;;;;;;;28.99;38.73;98570.41;2190000;81;20951;-79
2021/07/29 11:03:51;;;;;;;4.35;3.95;;;;;;;29.28;38.60;98567.55;2211426;80;20959;-81
2021/07/29 11:06:55;;;;;;;7.80;4.50;;;;;;;29.40;38.31;98566.23;2211444;80;20996;-83
2021/07/29 11:09:54;;;;;;;6.25;4.33;;;;;;;29.50;37.62;98569.20;2209724;80;20952;-80
2021/07/29 11:12:55;;;;;;;5.47;4.10;;;;;;;29.57;38.23;98567.80;2210253;80;21316;-82
2021/07/29 11:15:55;;;;;;;5.20;4.70;;;;;;;29.32;38.32;98567.73;2210535;80;21391;-80
2021/07/29 11:18:56;;;;;;;5.97;4.03;;;;;;;29.12;38.92;98560.55;2210919;81;20924;-81
2021/07/29 11:21:56;;;;;;;7.58;4.22;;;;;;;29.46;38.64;98562.28;2211371;80;20960;-80
2021/07/29 11:24:57;;;;;;;5.47;4.28;;;;;;;29.63;37.42;98560.66;2210714;80;20987;-81
2021/07/29 11:27:57;;;;;;;7.03;4.25;;;;;;;30.04;36.97;98563.12;2221824;80;20900;-82
2021/07/29 11:30:58;;;;;;;4.78;4.33;;;;;;;30.17;37.02;98563.09;2221533;80;20892;-79
2021/07/29 11:33:59;;;;;;;5.10;4.05;;;;;;;30.30;35.89;98559.87;2221403;80;20947;-81
2021/07/29 11:36:59;;;;;;;7.42;3.58;;;;;;;30.17;35.76;98563.58;2221761;80;20967;-82
2021/07/29 11:40:00;;;;;;;7.10;3.83;;;;;;;30.21;34.88;98557.00;2221598;80;21337;-80
2021/07/29 11:43:01;;;;;;;4.78;3.70;;;;;;;30.07;35.24;98563.38;2221799;80;20999;-82
2021/07/29 11:46:01;;;;;;;3.85;3.33;;;;;;;29.91;34.84;98560.05;2221899;80;21331;-80
2021/07/29 11:49:02;;;;;;;6.80;3.80;;;;;;;29.77;35.99;98559.68;2222120;80;20936;-83
2021/07/29 11:52:04;;;;;;;8.73;4.10;;;;;;;29.83;36.27;98561.94;2221757;80;20980;-81
2021/07/29 11:55:04;;;;;;;5.60;3.58;;;;;;;30.08;35.53;98554.34;2221905;80;21328;-81
2021/07/29 11:58:05;;;;;;;4.60;3.67;;;;;;;30.20;35.96;98548.06;2221953;80;20897;-81
2021/07/29 12:01:06;;;;;;;6.55;3.92;;;;;;;30.18;34.97;98554.53;2221755;80;20995;-82
2021/07/29 12:04:06;;;;;;;6.22;3.62;;;;;;;30.08;33.95;98557.03;2222499;80;20959;-80
2021/07/29 12:07:07;;;;;;;3.67;3.42;;;;;;;29.75;34.43;98556.23;2221667;80;20928;-80
2021/07/29 12:10:07;;;;;;;3.90;3.60;;;;;;;29.74;35.47;98544.62;2221096;80;20959;-80
2021/07/29 12:13:08;;;;;;;3.67;3.30;;;;;;;29.79;35.21;98536.22;2221181;80;20960;-80
2021/07/29 12:16:08;;;;;;;4.42;4.03;;;;;;;30.10;35.62;98538.94;2221841;80;21325;-82
2021/07/29 12:19:09;;;;;;;4.67;3.80;;;;;;;30.15;35.10;98536.77;2221625;80;20921;-82
2021/07/29 12:22:09;;;;;;;5.10;3.60;;;;;;;29.84;35.05;98542.12;2221896;80;20944;-81
2021/07/29 12:25:11;;;;;;;5.95;4.22;;;;;;;29.96;35.92;98543.08;2222286;80;20920;-82
2021/07/29 12:28:11;;;;;;;4.33;3.67;;;;;;;30.17;35.68;98534.83;2179951;82;21412;-80
2021/07/29 12:31:12;;;;;;;6.22;3.52;;;;;;;30.42;35.33;98532.08;2180333;82;20932;-82
2021/07/29 12:34:12;;;;;;;4.00;3.70;;;;;;;30.44;34.40;98525.23;2179422;82;21135;-80
2021/07/29 12:37:13;;;;;;;3.92;3.58;;;;;;;30.52;33.54;98522.83;2179774;82;20929;-81
2021/07/29 12:40:13;;;;;;;6.15;4.08;;;;;;;30.21;34.96;98522.00;2179297;82;21026;-80
2021/07/29 12:43:14;;;;;;;9.33;4.00;;;;;;;30.13;35.17;98523.05;2179959;82;20940;-83
2021/07/29 12:46:14;;;;;;;6.53;3.70;;;;;;;30.26;35.35;98519.83;2179309;82;20932;-82
2021/07/29 12:49:15;;;;;;;4.28;3.87;;;;;;;30.55;34.73;98507.80;2179575;82;21280;-80
2021/07/29 12:52:16;;;;;;;5.40;3.80;;;;;;;30.27;33.77;98516.17;2179228;82;20952;-80
2021/07/29 12:55:17;;;;;;;4.17;3.87;;;;;;;30.17;35.09;98514.64;2179257;82;21020;-82
2021/07/29 12:58:17;;;;;;;5.70;3.75;;;;;;;30.28;34.89;98501.25;2178799;82;20944;-81
2021/07/29 13:01:18;;;;;;;4.22;3.90;;;;;;;30.35;34.92;98505.23;2179763;82;21573;-79
2021/07/29 13:04:18;;;;;;;4.35;3.95;;;;;;;30.30;35.12;98510.08;2178986;82;21427;-81
2021/07/29 13:07:19;;;;;;;3.70;3.40;;;;;;;30.17;35.12;98506.56;2178730;82;21313;-83
2021/07/29 13:10:19;;;;;;;4.83;3.70;;;;;;;30.45;35.18;98501.86;2179225;82;21039;-83
2021/07/29 13:13:24;;;;;;;4.33;3.92;;;;;;;30.50;34.33;98507.28;2178968;82;21037;-82
2021/07/29 13:16:22;;;;;;;4.22;3.60;;;;;;;30.40;33.19;98500.86;2178754;82;20970;-80
2021/07/29 13:19:23;;;;;;;4.00;3.60;;;;;;;30.22;34.81;98494.11;2179649;82;21000;-81
2021/07/29 13:22:24;;;;;;;5.55;4.50;;;;;;;30.30;34.68;98491.23;2179458;82;21348;-80
2021/07/29 13:25:24;;;;;;;4.53;3.87;;;;;;;30.31;34.93;98488.91;2179888;82;21311;-80
2021/07/29 13:28:25;;;;;;;5.33;4.00;;;;;;;30.26;34.21;98483.00;2221735;80;20984;-84
2021/07/29 13:31:25;;;;;;;4.35;3.95;;;;;;;30.23;34.61;98479.68;2221324;80;20988;-81
2021/07/29 13:34:26;;;;;;;4.28;3.87;;;;;;;30.20;33.32;98476.73;2221579;80;20916;-82
2021/07/29 13:37:26;;;;;;;4.20;3.72;;;;;;;30.20;33.73;98478.08;2222043;80;20889;-84
2021/07/29 13:40:26;;;;;;;5.28;3.67;;;;;;;30.33;33.35;98466.77;2221680;80;21328;-81
2021/07/29 13:43:27;;;;;;;3.58;3.22;;;;;;;30.59;32.98;98470.75;2222017;80;20952;-82
2021/07/29 13:46:33;;;;;;;3.98;3.67;;;;;;;30.80;33.43;98459.68;2222510;80;20927;-81
2021/07/29 13:49:34;;;;;;;4.33;3.70;;;;;;;31.14;33.12;98468.70;2222205;80;21347;-81
2021/07/29 13:52:34;;;;;;;6.37;4.20;;;;;;;31.18;32.01;98470.70;2222146;80;20924;-80
2021/07/29 13:55:35;;;;;;;4.62;4.22;;;;;;;30.97;32.85;98467.32;2222088;80;21301;-83
2021/07/29 13:58:35;;;;;;;6.30;4.22;;;;;;;30.82;32.40;98465.80;2222436;80;20916;-82
2021/07/29 14:01:36;;;;;;;4.30;3.90;;;;;;;30.50;33.46;98467.37;2221965;80;20940;-83
2021/07/29 14:04:36;;;;;;;7.70;3.62;;;;;;;30.25;33.90;98471.00;2222397;80;20983;-81
2021/07/29 14:07:37;;;;;;;5.67;3.50;;;;;;;30.18;34.27;98463.88;2221817;80;20888;-80
2021/07/29 14:10:38;;;;;;;3.58;3.27;;;;;;;30.43;34.35;98454.36;2221609;80;21344;-80
2021/07/29 14:13:38;;;;;;;4.12;3.83;;;;;;;30.61;33.59;98453.48;2221845;80;20932;-82